Terminal Aerodrome Forecast
Issued by NWS Sterling, VA

Home | Current Version | Previous Version | Text Only | Print | Product List | Glossary On
Versions: 1 2 3 4 5 6 7 8 9 10 11 12 13 14 15 16 17 18 19 20 21 22
482
FTUS41 KLWX 132327
TAFBWI
TAF
KBWI 132327Z 1400/1506 30013G23KT P6SM SCT050
     FM140500 30011G18KT P6SM SKC
     FM141500 32011KT P6SM SKC
     FM142100 03004KT P6SM SCT200
     FM150400 13004KT P6SM OVC120=

USA.gov is the U.S. government's official web portal to all federal, state and local government web resources and services.